createdAt,value
2019-05-02T00:02:24.079Z,93.00
2019-05-02T00:04:55.796Z,93.88
2019-05-02T00:07:26.639Z,94.29
2019-05-02T00:09:57.111Z,95.05
2019-05-02T00:12:27.422Z,95.94
2019-05-02T00:15:01.822Z,96.19
2019-05-02T00:17:31.532Z,96.13
2019-05-02T00:20:01.753Z,96.53
2019-05-02T00:22:31.947Z,96.45
2019-05-02T00:25:02.064Z,96.66
2019-05-02T00:27:37.764Z,96.51
2019-05-02T00:30:06.502Z,96.42
2019-05-02T00:32:37.011Z,96.66
2019-05-02T00:35:07.479Z,96.71
2019-05-02T00:37:37.830Z,96.90
2019-05-02T00:40:08.941Z,97.32
2019-05-02T00:42:39.227Z,97.81
2019-05-02T00:45:09.467Z,97.92
2019-05-02T00:47:58.633Z,98.16
2019-05-02T00:50:32.010Z,98.51
2019-05-02T00:53:02.129Z,98.37
2019-05-02T00:55:33.796Z,98.43
2019-05-02T00:58:04.146Z,98.19
2019-05-02T01:00:48.677Z,98.02
2019-05-02T01:03:18.886Z,98.12
2019-05-02T01:05:49.018Z,98.58
2019-05-02T01:08:19.250Z,99.38
2019-05-02T01:10:52.193Z,100.00
2019-05-02T01:13:21.502Z,100.00
2019-05-02T01:15:51.643Z,100.00
2019-05-02T01:18:24.058Z,100.00
2019-05-02T01:20:58.200Z,100.00
2019-05-02T01:23:27.739Z,100.00
2019-05-02T01:25:57.951Z,100.00
2019-05-02T01:28:54.276Z,100.00
2019-05-02T01:31:34.802Z,100.00
2019-05-02T01:34:42.539Z,100.00
2019-05-02T01:37:22.911Z,100.00
2019-05-02T01:39:53.403Z,100.00
2019-05-02T01:42:23.596Z,100.00
2019-05-02T01:44:53.827Z,100.00
2019-05-02T01:47:24.151Z,100.00
2019-05-02T01:49:57.256Z,100.00
2019-05-02T01:52:26.305Z,100.00
2019-05-02T01:54:56.442Z,100.00
2019-05-02T01:57:26.586Z,100.00
2019-05-02T01:59:56.718Z,100.00
2019-05-02T02:02:28.053Z,100.00
2019-05-02T02:04:59.005Z,100.00
2019-05-02T02:07:29.324Z,100.00
2019-05-02T02:09:59.609Z,100.00
2019-05-02T02:12:29.891Z,100.00
2019-05-02T02:15:04.835Z,100.00
2019-05-02T02:17:35.163Z,100.00
2019-05-02T02:20:09.745Z,100.00
2019-05-02T02:22:47.770Z,100.00
2019-05-02T02:25:32.195Z,100.00
2019-05-02T02:28:02.640Z,100.00
2019-05-02T02:30:32.767Z,100.00
2019-05-02T02:33:07.764Z,100.00
2019-05-02T02:35:34.816Z,100.00
2019-05-02T02:38:05.013Z,100.00
2019-05-02T02:40:35.691Z,100.00
2019-05-02T02:43:30.252Z,100.00
2019-05-02T02:46:00.358Z,100.00
2019-05-02T02:48:33.589Z,100.00
2019-05-02T02:51:03.202Z,100.00
2019-05-02T02:53:33.392Z,100.00
2019-05-02T02:56:07.164Z,100.00
2019-05-02T02:58:45.298Z,100.00
2019-05-02T03:01:09.643Z,100.00
2019-05-02T03:03:39.960Z,100.00
2019-05-02T03:06:10.272Z,100.00
2019-05-02T03:08:46.229Z,100.00
2019-05-02T03:11:22.354Z,100.00
2019-05-02T03:14:07.432Z,100.00
2019-05-02T03:16:46.201Z,100.00
2019-05-02T03:19:14.720Z,100.00
2019-05-02T03:21:54.321Z,100.00
2019-05-02T03:24:26.416Z,100.00
2019-05-02T03:26:58.729Z,100.00
2019-05-02T03:29:39.105Z,100.00
2019-05-02T03:32:13.496Z,100.00
2019-05-02T03:34:46.544Z,100.00
2019-05-02T03:37:10.043Z,100.00
2019-05-02T03:39:38.468Z,100.00
2019-05-02T03:42:08.614Z,100.00
2019-05-02T03:44:39.810Z,100.00
2019-05-02T03:47:10.155Z,100.00
2019-05-02T03:49:48.535Z,100.00
2019-05-02T03:52:13.304Z,100.00
2019-05-02T03:54:50.261Z,100.00
2019-05-02T03:57:16.592Z,100.00
2019-05-02T03:59:46.757Z,100.00
2019-05-02T04:02:20.266Z,100.00
2019-05-02T04:04:54.250Z,100.00
2019-05-02T04:07:21.739Z,100.00
2019-05-02T04:09:52.469Z,100.00
2019-05-02T04:12:23.696Z,100.00
2019-05-02T04:14:55.960Z,100.00
2019-05-02T04:17:28.625Z,100.00
2019-05-02T04:19:59.453Z,100.00
2019-05-02T04:22:30.478Z,100.00
2019-05-02T04:25:06.042Z,100.00
2019-05-02T04:27:35.887Z,100.00
2019-05-02T04:30:11.217Z,100.00
2019-05-02T04:32:42.973Z,100.00
2019-05-02T04:35:11.431Z,100.00
2019-05-02T04:37:43.781Z,100.00
2019-05-02T04:40:14.171Z,100.00
2019-05-02T04:42:44.437Z,100.00
2019-05-02T04:45:28.292Z,100.00
2019-05-02T04:47:54.750Z,100.00
2019-05-02T04:50:24.974Z,100.00
2019-05-02T04:52:53.794Z,100.00
2019-05-02T04:55:28.983Z,100.00
2019-05-02T04:57:54.278Z,100.00
2019-05-02T05:00:28.802Z,100.00
2019-05-02T05:02:59.124Z,100.00
2019-05-02T05:05:31.392Z,100.00
2019-05-02T05:08:01.064Z,100.00
2019-05-02T05:10:40.200Z,100.00
2019-05-02T05:13:03.232Z,100.00
2019-05-02T05:15:41.108Z,98.77
2019-05-02T05:18:10.417Z,96.74
2019-05-02T05:20:38.567Z,95.12
2019-05-02T05:23:09.242Z,93.81
2019-05-02T05:25:55.771Z,93.91
2019-05-02T05:28:27.266Z,92.45
2019-05-02T05:30:58.351Z,90.48
2019-05-02T05:33:28.509Z,89.19
2019-05-02T05:35:58.604Z,88.44
2019-05-02T05:38:32.627Z,88.15
2019-05-02T05:41:02.984Z,87.06
2019-05-02T05:43:32.651Z,86.00
2019-05-02T05:46:12.318Z,84.28
2019-05-02T05:48:37.184Z,80.72
2019-05-02T05:51:07.242Z,78.73
2019-05-02T05:53:37.677Z,79.93
2019-05-02T05:56:08.063Z,74.42
2019-05-02T05:58:39.758Z,67.63
2019-05-02T06:01:10.540Z,63.51
2019-05-02T06:03:44.635Z,58.12
2019-05-02T06:06:14.730Z,55.74
2019-05-02T06:08:49.297Z,53.67
2019-05-02T06:11:19.982Z,50.98
2019-05-02T06:13:50.696Z,50.30
2019-05-02T06:16:21.077Z,48.95
2019-05-02T06:18:51.548Z,48.39
2019-05-02T06:21:21.690Z,47.31
2019-05-02T06:23:51.928Z,48.06
2019-05-02T06:26:22.055Z,51.45
2019-05-02T06:28:52.358Z,54.93
2019-05-02T06:31:22.498Z,56.44
2019-05-02T06:33:52.648Z,59.67
2019-05-02T06:36:22.764Z,62.76
2019-05-02T06:38:56.600Z,61.62
2019-05-02T06:41:24.723Z,64.85
2019-05-02T06:43:55.149Z,65.09
2019-05-02T06:46:27.835Z,65.58
2019-05-02T06:48:58.226Z,66.30
2019-05-02T06:51:29.524Z,69.34
2019-05-02T06:53:59.680Z,71.70
2019-05-02T06:56:29.836Z,72.66
2019-05-02T06:59:01.660Z,70.74
2019-05-02T07:01:31.810Z,71.67
2019-05-02T07:04:04.238Z,71.43
2019-05-02T07:06:42.443Z,68.91
2019-05-02T07:09:07.952Z,70.45
2019-05-02T07:11:38.858Z,70.33
2019-05-02T07:14:13.373Z,70.28
2019-05-02T07:17:05.780Z,68.76
2019-05-02T07:19:42.501Z,70.99
2019-05-02T07:22:12.887Z,70.26
2019-05-02T07:24:43.321Z,69.24
2019-05-02T07:27:14.717Z,68.85
2019-05-02T07:29:45.884Z,70.99
2019-05-02T07:32:19.167Z,67.01
2019-05-02T07:34:48.367Z,64.11
2019-05-02T07:37:19.511Z,63.87
2019-05-02T07:39:49.653Z,65.50
2019-05-02T07:42:19.742Z,66.14
2019-05-02T07:44:51.106Z,66.11
2019-05-02T07:47:21.251Z,65.50
2019-05-02T07:49:51.497Z,60.63
2019-05-02T07:52:21.619Z,59.73
2019-05-02T07:54:56.150Z,58.52
2019-05-02T07:57:30.538Z,57.53
2019-05-02T08:00:04.974Z,59.84
2019-05-02T08:02:35.876Z,56.61
2019-05-02T08:05:08.956Z,56.64
2019-05-02T08:07:39.454Z,54.66
2019-05-02T08:10:10.171Z,55.14
2019-05-02T08:12:40.341Z,55.43
2019-05-02T08:15:13.132Z,55.10
2019-05-02T08:17:42.815Z,55.90
2019-05-02T08:20:13.696Z,56.80
2019-05-02T08:22:48.922Z,55.50
2019-05-02T08:25:17.351Z,56.75
2019-05-02T08:28:10.034Z,55.29
2019-05-02T08:30:44.074Z,55.80
2019-05-02T08:33:14.294Z,56.03
2019-05-02T08:35:45.597Z,56.49
2019-05-02T08:38:17.907Z,55.36
2019-05-02T08:40:49.630Z,55.07
2019-05-02T08:43:19.840Z,55.97
2019-05-02T08:45:49.967Z,56.98
2019-05-02T08:48:22.589Z,54.75
2019-05-02T08:50:52.348Z,54.01
2019-05-02T08:53:22.584Z,55.64
2019-05-02T08:55:52.694Z,54.11
2019-05-02T08:58:22.854Z,53.48
2019-05-02T09:00:53.017Z,53.58
2019-05-02T09:03:23.435Z,51.53
2019-05-02T09:06:05.323Z,51.92
2019-05-02T09:08:25.754Z,52.32
2019-05-02T09:10:58.741Z,52.70
2019-05-02T09:13:29.554Z,54.24
2019-05-02T09:16:02.697Z,54.61
2019-05-02T09:18:38.277Z,52.57
2019-05-02T09:21:03.904Z,54.11
2019-05-02T09:23:37.072Z,56.45
2019-05-02T09:26:06.095Z,57.43
2019-05-02T09:28:36.271Z,56.39
2019-05-02T09:31:06.989Z,55.60
2019-05-02T09:33:42.373Z,55.83
2019-05-02T09:36:09.464Z,54.76
2019-05-02T09:38:39.808Z,53.46
2019-05-02T09:41:16.951Z,53.72
2019-05-02T09:43:42.611Z,53.76
2019-05-02T09:46:16.628Z,53.78
2019-05-02T09:48:44.939Z,53.48
2019-05-02T09:51:17.363Z,52.64
2019-05-02T09:53:47.578Z,53.13
2019-05-02T09:56:17.884Z,52.56
2019-05-02T09:58:49.343Z,52.69
2019-05-02T10:01:35.775Z,53.61
2019-05-02T10:04:06.449Z,54.21
2019-05-02T10:06:36.584Z,55.25
2019-05-02T10:09:12.086Z,54.03
2019-05-02T10:11:42.697Z,54.29
2019-05-02T10:14:13.680Z,51.59
2019-05-02T10:16:43.926Z,53.01
2019-05-02T10:19:14.304Z,53.91
2019-05-02T10:21:47.137Z,53.18
2019-05-02T10:24:16.765Z,52.27
2019-05-02T10:26:46.985Z,52.95
2019-05-02T10:29:22.773Z,53.18
2019-05-02T10:31:49.007Z,52.01
2019-05-02T10:34:19.376Z,54.35
2019-05-02T10:36:53.689Z,51.25
2019-05-02T10:39:23.537Z,51.97
2019-05-02T10:41:53.420Z,50.93
2019-05-02T10:44:27.136Z,51.73
2019-05-02T10:46:59.241Z,50.37
2019-05-02T10:49:50.213Z,50.20
2019-05-02T10:52:29.731Z,50.38
2019-05-02T10:54:53.791Z,52.17
2019-05-02T10:57:23.948Z,51.11
2019-05-02T10:59:56.131Z,51.30
2019-05-02T11:02:44.061Z,48.31
2019-05-02T11:05:24.710Z,49.87
2019-05-02T11:07:49.000Z,51.19
2019-05-02T11:10:19.315Z,50.05
2019-05-02T11:13:01.983Z,49.55
2019-05-02T11:16:12.472Z,49.41
2019-05-02T11:19:21.390Z,49.21
2019-05-02T11:21:56.428Z,46.92
2019-05-02T11:24:23.963Z,46.61
2019-05-02T11:26:54.491Z,46.70
2019-05-02T11:29:25.304Z,46.04
2019-05-02T11:31:55.460Z,45.37
2019-05-02T11:34:25.760Z,45.44
2019-05-02T11:36:56.011Z,46.08
2019-05-02T11:39:35.727Z,44.69
2019-05-02T11:41:58.297Z,44.53
2019-05-02T11:44:28.498Z,44.08
2019-05-02T11:46:58.746Z,42.83
2019-05-02T11:49:28.900Z,41.94
2019-05-02T11:52:03.888Z,41.85
2019-05-02T11:54:32.303Z,42.56
2019-05-02T11:57:02.562Z,42.40
2019-05-02T11:59:32.667Z,42.51
2019-05-02T12:02:24.824Z,44.69
2019-05-02T12:04:55.647Z,44.73
2019-05-02T12:07:27.658Z,42.71
2019-05-02T12:09:58.010Z,41.68
2019-05-02T12:12:32.490Z,40.77
2019-05-02T12:15:02.395Z,42.84
2019-05-02T12:17:32.622Z,41.84
2019-05-02T12:20:03.336Z,41.32
2019-05-02T12:22:34.729Z,44.05
2019-05-02T12:25:04.896Z,42.76
2019-05-02T12:27:35.035Z,41.85
2019-05-02T12:30:05.346Z,41.85
2019-05-02T12:32:35.526Z,40.61
2019-05-02T12:35:06.287Z,40.61
2019-05-02T12:37:36.439Z,41.25
2019-05-02T12:40:06.897Z,41.54
2019-05-02T12:42:37.220Z,42.35
2019-05-02T12:45:08.310Z,40.22
2019-05-02T12:47:38.481Z,40.47
2019-05-02T12:50:09.789Z,41.41
2019-05-02T12:52:40.003Z,42.14
2019-05-02T12:55:12.621Z,42.14
2019-05-02T12:57:42.990Z,38.83
2019-05-02T13:00:13.642Z,39.14
2019-05-02T13:03:02.805Z,38.66
2019-05-02T13:05:32.953Z,39.43
2019-05-02T13:08:03.442Z,38.74
2019-05-02T13:10:42.498Z,39.11
2019-05-02T13:13:12.718Z,39.19
2019-05-02T13:15:43.036Z,38.75
2019-05-02T13:18:13.146Z,37.07
2019-05-02T13:20:43.670Z,38.78
2019-05-02T13:23:37.266Z,39.53
2019-05-02T13:26:18.211Z,39.03
2019-05-02T13:28:42.351Z,38.59
2019-05-02T13:31:28.887Z,38.59
2019-05-02T13:34:06.464Z,42.26
2019-05-02T13:36:43.458Z,40.87
2019-05-02T13:39:22.092Z,40.87
2019-05-02T13:41:52.325Z,41.21
2019-05-02T13:44:28.961Z,40.97
2019-05-02T13:46:58.022Z,42.00
2019-05-02T13:49:28.343Z,41.50
2019-05-02T13:51:58.719Z,41.03
2019-05-02T13:54:29.255Z,40.19
2019-05-02T13:56:59.361Z,39.47
2019-05-02T13:59:29.510Z,40.57
2019-05-02T14:02:02.754Z,39.97
2019-05-02T14:04:33.197Z,39.97
2019-05-02T14:07:07.569Z,42.52
2019-05-02T14:09:58.090Z,42.52
2019-05-02T14:12:42.258Z,39.21
2019-05-02T14:15:13.764Z,41.56
2019-05-02T14:17:44.137Z,41.56
2019-05-02T14:20:15.855Z,39.40
2019-05-02T14:22:46.168Z,39.40
2019-05-02T14:25:16.585Z,41.89
2019-05-02T14:27:46.925Z,42.20
2019-05-02T14:30:35.663Z,41.72
2019-05-02T14:32:53.258Z,41.72
2019-05-02T14:35:28.335Z,43.36
2019-05-02T14:38:08.774Z,41.73
2019-05-02T14:41:00.275Z,41.54
2019-05-02T14:43:48.395Z,41.32
2019-05-02T14:46:21.993Z,41.32
2019-05-02T14:48:52.524Z,43.78
2019-05-02T14:51:27.582Z,42.93
2019-05-02T14:54:05.796Z,44.26
2019-05-02T14:56:37.519Z,44.29
2019-05-02T14:59:09.273Z,44.78
2019-05-02T15:01:42.099Z,44.59
2019-05-02T15:04:12.986Z,44.84
2019-05-02T15:06:47.312Z,45.80
2019-05-02T15:09:16.647Z,45.24
2019-05-02T15:11:59.351Z,47.04
2019-05-02T15:14:32.870Z,46.81
2019-05-02T15:17:05.370Z,47.04
2019-05-02T15:19:35.686Z,47.76
2019-05-02T15:22:06.110Z,47.66
2019-05-02T15:24:38.004Z,48.04
2019-05-02T15:27:16.542Z,47.27
2019-05-02T15:29:42.006Z,47.83
2019-05-02T15:32:44.937Z,47.61
2019-05-02T15:35:42.557Z,46.30
2019-05-02T15:38:20.706Z,46.70
2019-05-02T15:40:50.043Z,46.52
2019-05-02T15:43:16.721Z,46.08
2019-05-02T15:45:46.843Z,44.96
2019-05-02T15:48:25.564Z,45.35
2019-05-02T15:50:53.090Z,48.32
2019-05-02T15:53:29.470Z,49.54
2019-05-02T15:55:59.573Z,51.15
2019-05-02T15:58:29.721Z,54.04
2019-05-02T16:01:19.061Z,57.41
2019-05-02T16:03:52.291Z,58.41
2019-05-02T16:06:30.580Z,59.83
2019-05-02T16:08:54.799Z,61.70
2019-05-02T16:11:24.965Z,61.18
2019-05-02T16:13:55.995Z,62.56
2019-05-02T16:16:26.469Z,65.59
2019-05-02T16:18:56.702Z,66.70
2019-05-02T16:21:44.623Z,66.29
2019-05-02T16:24:22.861Z,67.76
2019-05-02T16:26:57.205Z,68.55
2019-05-02T16:29:28.903Z,68.11
2019-05-02T16:32:10.198Z,67.01
2019-05-02T16:34:55.315Z,68.13
2019-05-02T16:37:25.858Z,68.68
2019-05-02T16:39:56.103Z,68.53
2019-05-02T16:42:26.258Z,70.25
2019-05-02T16:44:56.437Z,71.12
2019-05-02T16:47:26.587Z,71.49
2019-05-02T16:49:56.745Z,70.68
2019-05-02T16:52:26.953Z,72.20
2019-05-02T16:54:57.102Z,74.20
2019-05-02T16:57:27.301Z,75.35
2019-05-02T17:00:01.351Z,77.75
2019-05-02T17:02:29.284Z,74.88
2019-05-02T17:05:00.155Z,78.54
2019-05-02T17:07:43.466Z,79.84
2019-05-02T17:10:22.444Z,80.50
2019-05-02T17:12:56.597Z,82.93
2019-05-02T17:15:36.531Z,86.41
2019-05-02T17:18:17.888Z,89.46
2019-05-02T17:20:39.693Z,91.99
2019-05-02T17:23:09.837Z,96.11
2019-05-02T17:25:41.607Z,96.52
2019-05-02T17:28:13.338Z,98.17
2019-05-02T17:30:43.585Z,99.05
2019-05-02T17:33:16.322Z,100.00
2019-05-02T17:35:49.797Z,100.00
2019-05-02T17:38:19.070Z,100.00
2019-05-02T17:40:52.367Z,100.00
2019-05-02T17:43:22.713Z,100.00
2019-05-02T17:45:53.070Z,100.00
2019-05-02T17:48:24.565Z,100.00
2019-05-02T17:51:16.511Z,100.00
2019-05-02T17:53:49.786Z,100.00
2019-05-02T17:56:20.942Z,100.00
2019-05-02T17:58:54.274Z,100.00
2019-05-02T18:01:31.877Z,100.00
2019-05-02T18:04:06.734Z,100.00
2019-05-02T18:06:35.751Z,100.00
2019-05-02T18:09:08.995Z,100.00
2019-05-02T18:11:39.510Z,100.00
2019-05-02T18:14:18.420Z,100.00
2019-05-02T18:16:41.977Z,100.00
2019-05-02T18:19:15.971Z,100.00
2019-05-02T18:21:44.095Z,100.00
2019-05-02T18:24:15.961Z,100.00
2019-05-02T18:26:46.237Z,100.00
2019-05-02T18:29:16.657Z,100.00
2019-05-02T18:31:47.644Z,100.00
2019-05-02T18:34:21.071Z,100.00
2019-05-02T18:36:49.844Z,100.00
2019-05-02T18:39:22.081Z,100.00
2019-05-02T18:41:54.927Z,100.00
2019-05-02T18:44:24.347Z,100.00
2019-05-02T18:46:57.795Z,100.00
2019-05-02T18:49:27.915Z,100.00
2019-05-02T18:51:58.832Z,100.00
2019-05-02T18:54:29.055Z,100.00
2019-05-02T18:57:02.396Z,100.00
2019-05-02T18:59:33.372Z,100.00
2019-05-02T19:02:03.671Z,100.00
2019-05-02T19:04:38.185Z,100.00
2019-05-02T19:07:07.476Z,100.00
2019-05-02T19:09:48.433Z,100.00
2019-05-02T19:12:19.446Z,100.00
2019-05-02T19:14:42.344Z,100.00
2019-05-02T19:17:12.577Z,100.00
2019-05-02T19:19:42.880Z,100.00
2019-05-02T19:22:16.829Z,100.00
2019-05-02T19:24:45.104Z,100.00
2019-05-02T19:27:20.997Z,100.00
2019-05-02T19:29:49.517Z,100.00
2019-05-02T19:32:25.510Z,100.00
2019-05-02T19:34:53.179Z,100.00
2019-05-02T19:37:23.378Z,99.82
2019-05-02T19:39:56.763Z,100.00
2019-05-02T19:42:26.509Z,100.00
2019-05-02T19:44:56.715Z,100.00
2019-05-02T19:47:28.728Z,100.00
2019-05-02T19:49:58.980Z,100.00
2019-05-02T19:52:37.207Z,100.00
2019-05-02T19:55:01.574Z,100.00
2019-05-02T19:57:32.480Z,99.28
2019-05-02T20:00:06.400Z,99.66
2019-05-02T20:02:37.533Z,100.00
2019-05-02T20:05:07.847Z,100.00
2019-05-02T20:07:38.130Z,99.93
2019-05-02T20:10:08.695Z,100.00
2019-05-02T20:12:42.420Z,100.00
2019-05-02T20:15:12.304Z,100.00
2019-05-02T20:17:42.623Z,100.00
2019-05-02T20:20:35.961Z,100.00
2019-05-02T20:23:15.503Z,100.00
2019-05-02T20:25:39.181Z,100.00
2019-05-02T20:28:09.748Z,100.00
2019-05-02T20:30:42.019Z,100.00
2019-05-02T20:33:12.868Z,100.00
2019-05-02T20:35:43.203Z,100.00
2019-05-02T20:38:13.656Z,100.00
2019-05-02T20:40:43.948Z,100.00
2019-05-02T20:43:14.116Z,100.00
2019-05-02T20:45:46.168Z,100.00
2019-05-02T20:48:16.436Z,100.00
2019-05-02T20:50:46.569Z,100.00
2019-05-02T20:53:28.028Z,100.00
2019-05-02T20:55:48.815Z,100.00
2019-05-02T20:58:19.015Z,100.00
2019-05-02T21:01:04.535Z,100.00
2019-05-02T21:03:21.787Z,100.00
2019-05-02T21:06:14.238Z,100.00
2019-05-02T21:08:52.582Z,100.00
2019-05-02T21:11:24.090Z,100.00
2019-05-02T21:13:54.333Z,100.00
2019-05-02T21:16:24.534Z,100.00
2019-05-02T21:18:54.891Z,100.00
2019-05-02T21:21:26.327Z,100.00
2019-05-02T21:23:56.602Z,100.00
2019-05-02T21:26:26.735Z,100.00
2019-05-02T21:28:57.319Z,100.00
2019-05-02T21:31:27.493Z,100.00
2019-05-02T21:33:57.831Z,100.00
2019-05-02T21:36:28.353Z,100.00
2019-05-02T21:38:58.531Z,100.00
2019-05-02T21:41:32.836Z,100.00
2019-05-02T21:44:02.513Z,100.00
2019-05-02T21:46:33.898Z,100.00
2019-05-02T21:49:05.006Z,100.00
2019-05-02T21:52:12.381Z,100.00
2019-05-02T21:54:52.293Z,100.00
2019-05-02T21:57:22.762Z,100.00
2019-05-02T22:02:38.092Z,100.00
2019-05-02T22:05:08.536Z,100.00
2019-05-02T22:07:38.766Z,100.00
2019-05-02T22:10:09.487Z,100.00
2019-05-02T22:12:39.976Z,100.00
2019-05-02T22:15:12.901Z,100.00
2019-05-02T22:17:43.204Z,100.00
2019-05-02T22:20:13.447Z,100.00
2019-05-02T22:22:43.673Z,100.00
2019-05-02T22:25:13.837Z,100.00
2019-05-02T22:27:44.192Z,100.00
2019-05-02T22:30:14.471Z,100.00
2019-05-02T22:32:44.618Z,100.00
2019-05-02T22:35:16.381Z,100.00
2019-05-02T22:37:49.664Z,100.00
2019-05-02T22:40:21.674Z,100.00
2019-05-02T22:42:52.347Z,100.00
2019-05-02T22:45:22.576Z,100.00
2019-05-02T22:47:52.715Z,100.00
2019-05-02T22:50:22.856Z,100.00
2019-05-02T22:52:52.997Z,100.00
2019-05-02T22:55:24.173Z,100.00
2019-05-02T22:57:54.311Z,100.00
2019-05-02T23:00:24.592Z,100.00
2019-05-02T23:02:54.808Z,100.00
2019-05-02T23:05:24.943Z,100.00
2019-05-02T23:07:55.080Z,100.00
2019-05-02T23:10:25.195Z,100.00
2019-05-02T23:12:55.371Z,100.00
2019-05-02T23:15:25.494Z,100.00
2019-05-02T23:17:55.663Z,100.00
2019-05-02T23:20:25.849Z,100.00
2019-05-02T23:22:56.194Z,100.00
2019-05-02T23:25:44.492Z,100.00
2019-05-02T23:28:22.169Z,100.00
2019-05-02T23:30:52.604Z,100.00
2019-05-02T23:33:24.482Z,100.00
2019-05-02T23:35:54.646Z,100.00
2019-05-02T23:38:24.840Z,100.00
2019-05-02T23:40:54.974Z,100.00
2019-05-02T23:43:25.141Z,100.00
2019-05-02T23:45:55.247Z,100.00
2019-05-02T23:48:25.441Z,100.00
2019-05-02T23:50:55.598Z,100.00
2019-05-02T23:53:25.885Z,100.00
2019-05-02T23:55:56.054Z,100.00
2019-05-02T23:58:27.477Z,100.00
